Ireland, Indiana
Current Conditions -  °F | °C
As of 6:35 PM on Friday 21 Nov 2014 (Local Time) from KHNB Reporting Station
Broken Clouds Broken Clouds  
Wind Chill: -2°   Ceiling: 8000
Heat Index:   Visibility: 10mi
Dew Point: -8°   Wind: 8mph
Humidity: 48%   Direction: 130°SE
Pressure: 30.38"   Gusts: NA
Location:  38.41°N, 87°W
Report Text: KHNB 220035Z AUTO 13007KT 10SM BKN080 02/M08 A3038 RMK AO1
Loading
Personal Weather Stations






























Interactive Weather Map New forecast layout! Learn more

10-Day Weather Forecast

Advertisements
Track Severe Weather on mobile